sensor_id;sensor_type;location;lat;lon;timestamp;temperature;humidity
68433;DHT22;55412;51.350;17.056;2022-12-19T00:01:15;-8.30;82.80
68433;DHT22;55412;51.350;17.056;2022-12-19T00:04:17;-8.30;83.00
68433;DHT22;55412;51.350;17.056;2022-12-19T00:06:44;-8.30;83.30
68433;DHT22;55412;51.350;17.056;2022-12-19T00:09:11;-8.30;83.20
68433;DHT22;55412;51.350;17.056;2022-12-19T00:11:38;-8.30;83.00
68433;DHT22;55412;51.350;17.056;2022-12-19T00:14:05;-8.30;83.10
68433;DHT22;55412;51.350;17.056;2022-12-19T00:16:32;-8.30;83.10
68433;DHT22;55412;51.350;17.056;2022-12-19T00:18:59;-8.40;82.80
68433;DHT22;55412;51.350;17.056;2022-12-19T00:21:28;-8.30;82.80
68433;DHT22;55412;51.350;17.056;2022-12-19T00:23:57;-8.40;82.80
68433;DHT22;55412;51.350;17.056;2022-12-19T00:26:34;-8.40;83.00
68433;DHT22;55412;51.350;17.056;2022-12-19T00:29:06;-8.30;82.80
68433;DHT22;55412;51.350;17.056;2022-12-19T00:31:35;-8.30;82.60
68433;DHT22;55412;51.350;17.056;2022-12-19T00:34:01;-8.30;82.60
68433;DHT22;55412;51.350;17.056;2022-12-19T00:36:31;-8.30;82.40
68433;DHT22;55412;51.350;17.056;2022-12-19T00:38:59;-8.40;82.30
68433;DHT22;55412;51.350;17.056;2022-12-19T00:41:28;-8.40;82.40
68433;DHT22;55412;51.350;17.056;2022-12-19T00:44:04;-8.40;82.30
68433;DHT22;55412;51.350;17.056;2022-12-19T00:46:32;-8.40;82.30
68433;DHT22;55412;51.350;17.056;2022-12-19T00:49:02;-8.50;82.30
68433;DHT22;55412;51.350;17.056;2022-12-19T00:51:30;-8.50;82.40
68433;DHT22;55412;51.350;17.056;2022-12-19T00:53:58;-8.50;82.70
68433;DHT22;55412;51.350;17.056;2022-12-19T00:56:30;-8.50;82.50
68433;DHT22;55412;51.350;17.056;2022-12-19T00:58:57;-8.50;82.50
68433;DHT22;55412;51.350;17.056;2022-12-19T01:01:29;-8.60;82.70
68433;DHT22;55412;51.350;17.056;2022-12-19T01:03:59;-8.60;82.90
68433;DHT22;55412;51.350;17.056;2022-12-19T01:06:26;-8.50;83.00
68433;DHT22;55412;51.350;17.056;2022-12-19T01:08:52;-8.50;83.00
68433;DHT22;55412;51.350;17.056;2022-12-19T01:11:21;-8.50;82.90
68433;DHT22;55412;51.350;17.056;2022-12-19T01:14:08;-8.50;83.00
68433;DHT22;55412;51.350;17.056;2022-12-19T01:16:35;-8.50;83.00
68433;DHT22;55412;51.350;17.056;2022-12-19T01:19:01;-8.50;83.00
68433;DHT22;55412;51.350;17.056;2022-12-19T01:21:27;-8.60;82.90
68433;DHT22;55412;51.350;17.056;2022-12-19T01:23:53;-8.50;83.30
68433;DHT22;55412;51.350;17.056;2022-12-19T01:26:19;-8.50;83.20
68433;DHT22;55412;51.350;17.056;2022-12-19T01:28:45;-8.40;83.10
68433;DHT22;55412;51.350;17.056;2022-12-19T01:31:11;-8.40;82.90
68433;DHT22;55412;51.350;17.056;2022-12-19T01:33:37;-8.40;82.80
68433;DHT22;55412;51.350;17.056;2022-12-19T01:36:04;-8.30;82.80
68433;DHT22;55412;51.350;17.056;2022-12-19T01:38:34;-8.40;82.60
68433;DHT22;55412;51.350;17.056;2022-12-19T01:41:01;-8.40;82.40
68433;DHT22;55412;51.350;17.056;2022-12-19T01:43:33;-8.40;82.40
68433;DHT22;55412;51.350;17.056;2022-12-19T01:46:47;-8.40;82.30
68433;DHT22;55412;51.350;17.056;2022-12-19T01:51:59;-8.50;82.50
68433;DHT22;55412;51.350;17.056;2022-12-19T01:54:33;-8.50;82.60
68433;DHT22;55412;51.350;17.056;2022-12-19T01:57:07;-8.50;82.50
68433;DHT22;55412;51.350;17.056;2022-12-19T01:59:46;-8.50;82.40
68433;DHT22;55412;51.350;17.056;2022-12-19T02:03:19;-8.40;82.30
68433;DHT22;55412;51.350;17.056;2022-12-19T02:05:53;-8.40;82.10
68433;DHT22;55412;51.350;17.056;2022-12-19T02:08:22;-8.50;82.00
68433;DHT22;55412;51.350;17.056;2022-12-19T02:10:49;-8.40;82.10
68433;DHT22;55412;51.350;17.056;2022-12-19T02:13:15;-8.40;82.10
68433;DHT22;55412;51.350;17.056;2022-12-19T02:21:28;-8.50;82.00
68433;DHT22;55412;51.350;17.056;2022-12-19T02:33:02;-8.40;82.20
68433;DHT22;55412;51.350;17.056;2022-12-19T02:38:55;-8.40;81.90
68433;DHT22;55412;51.350;17.056;2022-12-19T02:41:29;-8.30;81.80
68433;DHT22;55412;51.350;17.056;2022-12-19T02:44:32;-8.30;81.60
68433;DHT22;55412;51.350;17.056;2022-12-19T02:47:08;-8.30;81.30
68433;DHT22;55412;51.350;17.056;2022-12-19T02:49:41;-8.30;81.30
68433;DHT22;55412;51.350;17.056;2022-12-19T02:55:22;-8.20;81.20
68433;DHT22;55412;51.350;17.056;2022-12-19T03:01:55;-8.20;80.80
68433;DHT22;55412;51.350;17.056;2022-12-19T03:07:33;-8.20;80.60
68433;DHT22;55412;51.350;17.056;2022-12-19T03:10:34;-8.20;80.50
68433;DHT22;55412;51.350;17.056;2022-12-19T03:13:09;-8.20;80.50
68433;DHT22;55412;51.350;17.056;2022-12-19T03:15:42;-8.20;80.30
68433;DHT22;55412;51.350;17.056;2022-12-19T03:18:08;-8.20;80.30
68433;DHT22;55412;51.350;17.056;2022-12-19T03:24:16;-8.20;80.10
68433;DHT22;55412;51.350;17.056;2022-12-19T03:29:35;-8.20;80.00
68433;DHT22;55412;51.350;17.056;2022-12-19T03:32:05;-8.20;80.10
68433;DHT22;55412;51.350;17.056;2022-12-19T03:34:48;-8.30;80.10
68433;DHT22;55412;51.350;17.056;2022-12-19T03:37:19;-8.30;80.00
68433;DHT22;55412;51.350;17.056;2022-12-19T03:39:51;-8.30;80.20
68433;DHT22;55412;51.350;17.056;2022-12-19T03:42:21;-8.30;79.90
68433;DHT22;55412;51.350;17.056;2022-12-19T03:45:07;-8.40;80.20
68433;DHT22;55412;51.350;17.056;2022-12-19T03:47:48;-8.40;80.40
68433;DHT22;55412;51.350;17.056;2022-12-19T03:50:16;-8.40;80.60
68433;DHT22;55412;51.350;17.056;2022-12-19T03:53:07;-8.40;80.60
68433;DHT22;55412;51.350;17.056;2022-12-19T03:55:51;-8.40;80.60
68433;DHT22;55412;51.350;17.056;2022-12-19T03:58:30;-8.30;80.60
68433;DHT22;55412;51.350;17.056;2022-12-19T04:00:58;-8.30;80.40
68433;DHT22;55412;51.350;17.056;2022-12-19T04:03:32;-8.30;80.40
68433;DHT22;55412;51.350;17.056;2022-12-19T04:05:59;-8.30;80.70
68433;DHT22;55412;51.350;17.056;2022-12-19T04:08:27;-8.20;80.90
68433;DHT22;55412;51.350;17.056;2022-12-19T04:11:02;-8.20;80.90
68433;DHT22;55412;51.350;17.056;2022-12-19T04:13:46;-8.10;80.70
68433;DHT22;55412;51.350;17.056;2022-12-19T04:22:04;-8.00;80.30
68433;DHT22;55412;51.350;17.056;2022-12-19T04:24:41;-8.00;80.20
68433;DHT22;55412;51.350;17.056;2022-12-19T04:27:10;-8.00;80.20
68433;DHT22;55412;51.350;17.056;2022-12-19T04:29:37;-7.90;80.00
68433;DHT22;55412;51.350;17.056;2022-12-19T04:32:05;-7.90;80.00
68433;DHT22;55412;51.350;17.056;2022-12-19T04:34:32;-7.90;79.90
68433;DHT22;55412;51.350;17.056;2022-12-19T04:36:58;-7.80;79.90
68433;DHT22;55412;51.350;17.056;2022-12-19T04:39:24;-7.80;80.00
68433;DHT22;55412;51.350;17.056;2022-12-19T04:41:50;-7.70;79.90
68433;DHT22;55412;51.350;17.056;2022-12-19T04:44:16;-7.70;79.70
68433;DHT22;55412;51.350;17.056;2022-12-19T04:46:42;-7.70;79.60
68433;DHT22;55412;51.350;17.056;2022-12-19T04:49:08;-7.70;79.80
68433;DHT22;55412;51.350;17.056;2022-12-19T04:51:34;-7.60;79.50
68433;DHT22;55412;51.350;17.056;2022-12-19T04:54:00;-7.60;79.50
68433;DHT22;55412;51.350;17.056;2022-12-19T04:56:26;-7.60;79.50
68433;DHT22;55412;51.350;17.056;2022-12-19T04:58:57;-7.60;79.40
68433;DHT22;55412;51.350;17.056;2022-12-19T05:01:24;-7.60;79.60
68433;DHT22;55412;51.350;17.056;2022-12-19T05:03:51;-7.60;79.60
68433;DHT22;55412;51.350;17.056;2022-12-19T05:06:17;-7.60;79.80
68433;DHT22;55412;51.350;17.056;2022-12-19T05:08:44;-7.60;79.60
68433;DHT22;55412;51.350;17.056;2022-12-19T05:11:13;-7.60;79.60
68433;DHT22;55412;51.350;17.056;2022-12-19T05:13:40;-7.60;80.10
68433;DHT22;55412;51.350;17.056;2022-12-19T05:16:08;-7.60;80.00
68433;DHT22;55412;51.350;17.056;2022-12-19T05:18:36;-7.60;80.10
68433;DHT22;55412;51.350;17.056;2022-12-19T05:21:04;-7.60;80.00
68433;DHT22;55412;51.350;17.056;2022-12-19T05:23:30;-7.60;80.00
68433;DHT22;55412;51.350;17.056;2022-12-19T05:25:57;-7.60;79.90
68433;DHT22;55412;51.350;17.056;2022-12-19T05:28:25;-7.60;80.00
68433;DHT22;55412;51.350;17.056;2022-12-19T05:30:51;-7.60;80.00
68433;DHT22;55412;51.350;17.056;2022-12-19T05:33:17;-7.60;80.10
68433;DHT22;55412;51.350;17.056;2022-12-19T05:35:43;-7.60;80.20
68433;DHT22;55412;51.350;17.056;2022-12-19T05:38:09;-7.60;80.20
68433;DHT22;55412;51.350;17.056;2022-12-19T05:40:35;-7.50;80.00
68433;DHT22;55412;51.350;17.056;2022-12-19T05:43:04;-7.60;79.80
68433;DHT22;55412;51.350;17.056;2022-12-19T05:45:33;-7.50;79.80
68433;DHT22;55412;51.350;17.056;2022-12-19T05:47:59;-7.50;79.80
68433;DHT22;55412;51.350;17.056;2022-12-19T05:50:25;-7.50;79.90
68433;DHT22;55412;51.350;17.056;2022-12-19T05:52:51;-7.50;79.90
68433;DHT22;55412;51.350;17.056;2022-12-19T05:55:17;-7.40;79.80
68433;DHT22;55412;51.350;17.056;2022-12-19T05:57:43;-7.30;79.50
68433;DHT22;55412;51.350;17.056;2022-12-19T06:00:10;-7.40;79.20
68433;DHT22;55412;51.350;17.056;2022-12-19T06:02:36;-7.40;79.30
68433;DHT22;55412;51.350;17.056;2022-12-19T06:05:06;-7.30;79.40
68433;DHT22;55412;51.350;17.056;2022-12-19T06:07:33;-7.30;79.50
68433;DHT22;55412;51.350;17.056;2022-12-19T06:09:59;-7.30;79.60
68433;DHT22;55412;51.350;17.056;2022-12-19T06:12:25;-7.30;79.70
68433;DHT22;55412;51.350;17.056;2022-12-19T06:14:51;-7.30;79.50
68433;DHT22;55412;51.350;17.056;2022-12-19T06:17:17;-7.30;79.50
68433;DHT22;55412;51.350;17.056;2022-12-19T06:19:43;-7.30;79.70
68433;DHT22;55412;51.350;17.056;2022-12-19T06:22:09;-7.20;79.60
68433;DHT22;55412;51.350;17.056;2022-12-19T06:24:35;-7.20;79.50
68433;DHT22;55412;51.350;17.056;2022-12-19T06:27:01;-7.20;79.70
68433;DHT22;55412;51.350;17.056;2022-12-19T06:29:27;-7.10;79.60
68433;DHT22;55412;51.350;17.056;2022-12-19T06:31:53;-7.10;79.70
68433;DHT22;55412;51.350;17.056;2022-12-19T06:34:20;-7.00;79.90
68433;DHT22;55412;51.350;17.056;2022-12-19T06:36:47;-7.00;79.80
68433;DHT22;55412;51.350;17.056;2022-12-19T06:39:14;-6.90;79.70
68433;DHT22;55412;51.350;17.056;2022-12-19T06:41:42;-6.90;79.60
68433;DHT22;55412;51.350;17.056;2022-12-19T06:44:26;-6.90;79.60
68433;DHT22;55412;51.350;17.056;2022-12-19T06:46:53;-6.80;79.60
68433;DHT22;55412;51.350;17.056;2022-12-19T06:49:19;-6.80;79.50
68433;DHT22;55412;51.350;17.056;2022-12-19T06:51:45;-6.80;79.50
68433;DHT22;55412;51.350;17.056;2022-12-19T06:54:16;-6.80;79.60
68433;DHT22;55412;51.350;17.056;2022-12-19T06:56:43;-6.70;79.40
68433;DHT22;55412;51.350;17.056;2022-12-19T06:59:12;-6.70;79.30
68433;DHT22;55412;51.350;17.056;2022-12-19T07:02:01;-6.70;79.50
68433;DHT22;55412;51.350;17.056;2022-12-19T07:04:38;-6.60;79.50
68433;DHT22;55412;51.350;17.056;2022-12-19T07:07:06;-6.50;79.40
68433;DHT22;55412;51.350;17.056;2022-12-19T07:09:33;-6.50;79.30
68433;DHT22;55412;51.350;17.056;2022-12-19T07:12:00;-6.40;79.00
68433;DHT22;55412;51.350;17.056;2022-12-19T07:14:27;-6.30;78.90
68433;DHT22;55412;51.350;17.056;2022-12-19T07:16:53;-6.20;78.40
68433;DHT22;55412;51.350;17.056;2022-12-19T07:19:24;-6.10;78.00
68433;DHT22;55412;51.350;17.056;2022-12-19T07:21:50;-6.10;77.90
68433;DHT22;55412;51.350;17.056;2022-12-19T07:24:16;-6.00;77.90
68433;DHT22;55412;51.350;17.056;2022-12-19T07:26:43;-6.00;77.60
68433;DHT22;55412;51.350;17.056;2022-12-19T07:29:10;-5.90;77.30
68433;DHT22;55412;51.350;17.056;2022-12-19T07:31:36;-5.80;77.50
68433;DHT22;55412;51.350;17.056;2022-12-19T07:34:02;-5.70;77.50
68433;DHT22;55412;51.350;17.056;2022-12-19T07:36:28;-5.60;76.80
68433;DHT22;55412;51.350;17.056;2022-12-19T07:38:54;-5.50;76.80
68433;DHT22;55412;51.350;17.056;2022-12-19T07:41:20;-5.40;76.50
68433;DHT22;55412;51.350;17.056;2022-12-19T07:43:46;-5.40;76.30
68433;DHT22;55412;51.350;17.056;2022-12-19T07:46:13;-5.30;76.10
68433;DHT22;55412;51.350;17.056;2022-12-19T07:48:39;-5.20;75.70
68433;DHT22;55412;51.350;17.056;2022-12-19T07:51:05;-5.10;75.50
68433;DHT22;55412;51.350;17.056;2022-12-19T07:53:31;-5.00;75.20
68433;DHT22;55412;51.350;17.056;2022-12-19T07:55:57;-4.90;75.00
68433;DHT22;55412;51.350;17.056;2022-12-19T07:58:23;-4.70;74.50
68433;DHT22;55412;51.350;17.056;2022-12-19T08:00:54;-4.70;74.50
68433;DHT22;55412;51.350;17.056;2022-12-19T08:03:21;-4.50;73.90
68433;DHT22;55412;51.350;17.056;2022-12-19T08:05:48;-4.40;73.80
68433;DHT22;55412;51.350;17.056;2022-12-19T08:08:14;-4.40;73.30
68433;DHT22;55412;51.350;17.056;2022-12-19T08:10:40;-4.30;73.80
68433;DHT22;55412;51.350;17.056;2022-12-19T08:13:06;-4.30;73.60
68433;DHT22;55412;51.350;17.056;2022-12-19T08:15:32;-4.30;73.60
68433;DHT22;55412;51.350;17.056;2022-12-19T08:17:58;-4.30;73.50
68433;DHT22;55412;51.350;17.056;2022-12-19T08:20:24;-4.30;73.80
68433;DHT22;55412;51.350;17.056;2022-12-19T08:22:50;-4.20;73.70
68433;DHT22;55412;51.350;17.056;2022-12-19T08:25:16;-4.10;73.50
68433;DHT22;55412;51.350;17.056;2022-12-19T08:27:42;-3.90;73.10
68433;DHT22;55412;51.350;17.056;2022-12-19T08:30:08;-3.90;73.30
68433;DHT22;55412;51.350;17.056;2022-12-19T08:32:36;-3.70;73.10
68433;DHT22;55412;51.350;17.056;2022-12-19T08:35:02;-3.60;72.60
68433;DHT22;55412;51.350;17.056;2022-12-19T08:37:28;-3.40;72.10
68433;DHT22;55412;51.350;17.056;2022-12-19T08:39:54;-3.40;71.70
68433;DHT22;55412;51.350;17.056;2022-12-19T08:42:20;-3.30;71.20
68433;DHT22;55412;51.350;17.056;2022-12-19T08:44:46;-3.20;71.30
68433;DHT22;55412;51.350;17.056;2022-12-19T08:47:12;-3.20;71.00
68433;DHT22;55412;51.350;17.056;2022-12-19T08:49:38;-3.40;71.20
68433;DHT22;55412;51.350;17.056;2022-12-19T08:52:04;-3.40;71.60
68433;DHT22;55412;51.350;17.056;2022-12-19T08:54:30;-3.40;72.10
68433;DHT22;55412;51.350;17.056;2022-12-19T08:56:57;-3.30;71.80
68433;DHT22;55412;51.350;17.056;2022-12-19T08:59:23;-3.20;71.90
68433;DHT22;55412;51.350;17.056;2022-12-19T09:01:49;-3.00;71.20
68433;DHT22;55412;51.350;17.056;2022-12-19T09:04:15;-2.80;70.70
68433;DHT22;55412;51.350;17.056;2022-12-19T09:06:42;-2.60;70.20
68433;DHT22;55412;51.350;17.056;2022-12-19T09:09:08;-2.60;69.80
68433;DHT22;55412;51.350;17.056;2022-12-19T09:11:34;-2.50;69.50
68433;DHT22;55412;51.350;17.056;2022-12-19T09:14:00;-2.50;69.80
68433;DHT22;55412;51.350;17.056;2022-12-19T09:16:27;-2.40;69.80
68433;DHT22;55412;51.350;17.056;2022-12-19T09:18:55;-2.30;69.70
68433;DHT22;55412;51.350;17.056;2022-12-19T09:21:24;-2.20;69.30
68433;DHT22;55412;51.350;17.056;2022-12-19T09:23:55;-2.10;69.20
68433;DHT22;55412;51.350;17.056;2022-12-19T09:26:24;-2.00;69.10
68433;DHT22;55412;51.350;17.056;2022-12-19T09:28:51;-1.90;68.90
68433;DHT22;55412;51.350;17.056;2022-12-19T09:31:20;-1.60;68.10
68433;DHT22;55412;51.350;17.056;2022-12-19T09:33:47;-1.40;67.90
68433;DHT22;55412;51.350;17.056;2022-12-19T09:36:19;-1.30;67.20
68433;DHT22;55412;51.350;17.056;2022-12-19T09:38:47;-1.20;67.00
68433;DHT22;55412;51.350;17.056;2022-12-19T09:41:38;-1.00;66.20
68433;DHT22;55412;51.350;17.056;2022-12-19T09:47:29;-0.60;65.10
68433;DHT22;55412;51.350;17.056;2022-12-19T09:49:57;-0.40;64.40
68433;DHT22;55412;51.350;17.056;2022-12-19T09:52:40;-0.30;63.50
68433;DHT22;55412;51.350;17.056;2022-12-19T09:55:32;-0.20;63.60
68433;DHT22;55412;51.350;17.056;2022-12-19T09:58:18;-0.10;63.50
68433;DHT22;55412;51.350;17.056;2022-12-19T10:00:52;0.00;63.00
68433;DHT22;55412;51.350;17.056;2022-12-19T10:03:28;0.20;62.30
68433;DHT22;55412;51.350;17.056;2022-12-19T10:06:03;0.20;62.10
68433;DHT22;55412;51.350;17.056;2022-12-19T10:08:38;0.20;62.30
68433;DHT22;55412;51.350;17.056;2022-12-19T10:11:07;0.10;61.20
68433;DHT22;55412;51.350;17.056;2022-12-19T10:13:58;0.00;61.80
68433;DHT22;55412;51.350;17.056;2022-12-19T10:16:59;-0.10;62.10
68433;DHT22;55412;51.350;17.056;2022-12-19T10:20:02;-0.10;62.40
68433;DHT22;55412;51.350;17.056;2022-12-19T10:25:59;-0.10;62.30
68433;DHT22;55412;51.350;17.056;2022-12-19T10:28:48;-0.10;62.70
68433;DHT22;55412;51.350;17.056;2022-12-19T10:31:38;-0.10;62.70
68433;DHT22;55412;51.350;17.056;2022-12-19T10:34:21;-0.20;62.70
68433;DHT22;55412;51.350;17.056;2022-12-19T10:36:55;-0.10;63.10
68433;DHT22;55412;51.350;17.056;2022-12-19T10:40:14;-0.10;62.30
68433;DHT22;55412;51.350;17.056;2022-12-19T10:42:47;-0.10;63.10
68433;DHT22;55412;51.350;17.056;2022-12-19T10:45:18;-0.10;63.00
68433;DHT22;55412;51.350;17.056;2022-12-19T10:47:55;-0.10;62.90
68433;DHT22;55412;51.350;17.056;2022-12-19T10:50:28;-0.10;63.40
68433;DHT22;55412;51.350;17.056;2022-12-19T10:53:07;-0.10;62.70
68433;DHT22;55412;51.350;17.056;2022-12-19T11:01:28;0.10;63.20
68433;DHT22;55412;51.350;17.056;2022-12-19T11:04:16;0.10;62.90
68433;DHT22;55412;51.350;17.056;2022-12-19T11:06:54;0.00;63.20
68433;DHT22;55412;51.350;17.056;2022-12-19T11:09:40;0.00;63.70
68433;DHT22;55412;51.350;17.056;2022-12-19T11:14:50;0.20;63.40
68433;DHT22;55412;51.350;17.056;2022-12-19T11:17:35;0.20;63.30
68433;DHT22;55412;51.350;17.056;2022-12-19T11:20:17;0.20;63.40
68433;DHT22;55412;51.350;17.056;2022-12-19T11:22:54;0.30;63.00
68433;DHT22;55412;51.350;17.056;2022-12-19T11:25:36;0.30;62.90
68433;DHT22;55412;51.350;17.056;2022-12-19T11:28:19;0.30;63.60
68433;DHT22;55412;51.350;17.056;2022-12-19T11:31:01;0.40;63.10
68433;DHT22;55412;51.350;17.056;2022-12-19T11:33:30;0.40;63.20
68433;DHT22;55412;51.350;17.056;2022-12-19T11:35:58;0.50;62.90
68433;DHT22;55412;51.350;17.056;2022-12-19T11:38:31;0.50;62.90
68433;DHT22;55412;51.350;17.056;2022-12-19T11:41:30;0.60;62.60
68433;DHT22;55412;51.350;17.056;2022-12-19T11:44:06;0.70;62.30
68433;DHT22;55412;51.350;17.056;2022-12-19T11:46:46;0.70;62.20
68433;DHT22;55412;51.350;17.056;2022-12-19T11:49:24;0.70;62.20
68433;DHT22;55412;51.350;17.056;2022-12-19T11:52:35;0.80;62.20
68433;DHT22;55412;51.350;17.056;2022-12-19T11:55:53;0.80;62.30
68433;DHT22;55412;51.350;17.056;2022-12-19T11:58:25;0.90;62.30
68433;DHT22;55412;51.350;17.056;2022-12-19T12:01:07;0.90;62.50
68433;DHT22;55412;51.350;17.056;2022-12-19T12:06:47;1.00;61.60
68433;DHT22;55412;51.350;17.056;2022-12-19T12:09:35;1.10;61.90
68433;DHT22;55412;51.350;17.056;2022-12-19T12:12:36;1.20;61.90
68433;DHT22;55412;51.350;17.056;2022-12-19T12:15:25;1.20;61.30
68433;DHT22;55412;51.350;17.056;2022-12-19T12:21:13;1.30;61.60
68433;DHT22;55412;51.350;17.056;2022-12-19T12:23:54;1.20;61.50
68433;DHT22;55412;51.350;17.056;2022-12-19T12:26:35;1.20;61.90
68433;DHT22;55412;51.350;17.056;2022-12-19T12:29:26;1.20;62.50
68433;DHT22;55412;51.350;17.056;2022-12-19T12:41:40;1.20;62.60
68433;DHT22;55412;51.350;17.056;2022-12-19T12:44:34;1.20;62.70
68433;DHT22;55412;51.350;17.056;2022-12-19T12:47:18;1.10;62.80
68433;DHT22;55412;51.350;17.056;2022-12-19T12:50:03;1.10;63.40
68433;DHT22;55412;51.350;17.056;2022-12-19T12:52:48;1.10;63.40
68433;DHT22;55412;51.350;17.056;2022-12-19T12:55:38;1.00;64.00
68433;DHT22;55412;51.350;17.056;2022-12-19T13:04:05;0.90;64.30
68433;DHT22;55412;51.350;17.056;2022-12-19T13:09:25;0.90;64.90
68433;DHT22;55412;51.350;17.056;2022-12-19T13:12:03;0.90;65.40
68433;DHT22;55412;51.350;17.056;2022-12-19T13:30:32;1.10;64.50
68433;DHT22;55412;51.350;17.056;2022-12-19T13:38:22;1.10;64.50
68433;DHT22;55412;51.350;17.056;2022-12-19T13:41:00;1.10;64.50
68433;DHT22;55412;51.350;17.056;2022-12-19T13:43:47;1.10;64.40
68433;DHT22;55412;51.350;17.056;2022-12-19T13:46:37;1.00;64.90
68433;DHT22;55412;51.350;17.056;2022-12-19T13:51:50;1.00;65.10
68433;DHT22;55412;51.350;17.056;2022-12-19T13:54:22;0.90;65.00
68433;DHT22;55412;51.350;17.056;2022-12-19T13:56:54;0.90;65.70
68433;DHT22;55412;51.350;17.056;2022-12-19T13:59:22;0.90;65.80
68433;DHT22;55412;51.350;17.056;2022-12-19T14:01:52;0.80;65.40
68433;DHT22;55412;51.350;17.056;2022-12-19T14:04:29;0.80;65.80
68433;DHT22;55412;51.350;17.056;2022-12-19T14:07:03;0.80;65.80
68433;DHT22;55412;51.350;17.056;2022-12-19T14:09:39;0.70;65.80
68433;DHT22;55412;51.350;17.056;2022-12-19T14:12:28;0.70;66.10
68433;DHT22;55412;51.350;17.056;2022-12-19T14:15:31;0.70;66.20
68433;DHT22;55412;51.350;17.056;2022-12-19T14:18:00;0.60;66.60
68433;DHT22;55412;51.350;17.056;2022-12-19T14:20:29;0.60;66.40
68433;DHT22;55412;51.350;17.056;2022-12-19T14:23:00;0.60;66.60
68433;DHT22;55412;51.350;17.056;2022-12-19T14:28:17;0.50;66.70
68433;DHT22;55412;51.350;17.056;2022-12-19T14:30:59;0.50;66.70
68433;DHT22;55412;51.350;17.056;2022-12-19T14:33:43;0.60;67.20
68433;DHT22;55412;51.350;17.056;2022-12-19T14:36:11;0.60;67.00
68433;DHT22;55412;51.350;17.056;2022-12-19T14:38:38;0.60;67.00
68433;DHT22;55412;51.350;17.056;2022-12-19T14:41:05;0.60;67.20
68433;DHT22;55412;51.350;17.056;2022-12-19T14:43:56;0.60;67.20
68433;DHT22;55412;51.350;17.056;2022-12-19T14:46:26;0.50;66.80
68433;DHT22;55412;51.350;17.056;2022-12-19T14:48:58;0.50;67.00
68433;DHT22;55412;51.350;17.056;2022-12-19T14:51:36;0.50;67.40
68433;DHT22;55412;51.350;17.056;2022-12-19T15:05:07;0.50;67.10
68433;DHT22;55412;51.350;17.056;2022-12-19T15:07:41;0.50;67.00
68433;DHT22;55412;51.350;17.056;2022-12-19T15:10:13;0.40;67.00
68433;DHT22;55412;51.350;17.056;2022-12-19T15:18:26;0.30;67.40
68433;DHT22;55412;51.350;17.056;2022-12-19T15:20:55;0.30;67.70
68433;DHT22;55412;51.350;17.056;2022-12-19T15:23:22;0.30;67.90
68433;DHT22;55412;51.350;17.056;2022-12-19T15:25:50;0.30;67.70
68433;DHT22;55412;51.350;17.056;2022-12-19T15:28:22;0.30;68.00
68433;DHT22;55412;51.350;17.056;2022-12-19T15:30:57;0.30;67.90
68433;DHT22;55412;51.350;17.056;2022-12-19T15:33:26;0.30;68.10
68433;DHT22;55412;51.350;17.056;2022-12-19T15:35:53;0.30;68.40
68433;DHT22;55412;51.350;17.056;2022-12-19T15:38:20;0.30;68.60
68433;DHT22;55412;51.350;17.056;2022-12-19T15:40:46;0.30;68.40
68433;DHT22;55412;51.350;17.056;2022-12-19T15:43:17;0.30;68.20
68433;DHT22;55412;51.350;17.056;2022-12-19T15:45:46;0.30;69.00
68433;DHT22;55412;51.350;17.056;2022-12-19T15:48:16;0.30;69.00
68433;DHT22;55412;51.350;17.056;2022-12-19T15:50:48;0.30;68.90
68433;DHT22;55412;51.350;17.056;2022-12-19T15:53:28;0.30;69.10
68433;DHT22;55412;51.350;17.056;2022-12-19T15:55:57;0.30;69.20
68433;DHT22;55412;51.350;17.056;2022-12-19T15:58:27;0.20;69.30
68433;DHT22;55412;51.350;17.056;2022-12-19T16:01:01;0.20;69.50
68433;DHT22;55412;51.350;17.056;2022-12-19T16:03:27;0.20;69.80
68433;DHT22;55412;51.350;17.056;2022-12-19T16:05:55;0.30;69.30
68433;DHT22;55412;51.350;17.056;2022-12-19T16:08:22;0.20;69.60
68433;DHT22;55412;51.350;17.056;2022-12-19T16:10:54;0.20;69.20
68433;DHT22;55412;51.350;17.056;2022-12-19T16:13:23;0.30;69.60
68433;DHT22;55412;51.350;17.056;2022-12-19T16:15:51;0.30;69.80
68433;DHT22;55412;51.350;17.056;2022-12-19T16:18:19;0.30;69.70
68433;DHT22;55412;51.350;17.056;2022-12-19T16:20:46;0.30;70.00
68433;DHT22;55412;51.350;17.056;2022-12-19T16:23:13;0.30;70.00
68433;DHT22;55412;51.350;17.056;2022-12-19T16:25:42;0.40;70.00
68433;DHT22;55412;51.350;17.056;2022-12-19T16:28:17;0.40;70.00
68433;DHT22;55412;51.350;17.056;2022-12-19T16:30:45;0.40;70.00
68433;DHT22;55412;51.350;17.056;2022-12-19T16:33:20;0.40;69.90
68433;DHT22;55412;51.350;17.056;2022-12-19T16:35:48;0.40;70.10
68433;DHT22;55412;51.350;17.056;2022-12-19T16:38:15;0.40;70.10
68433;DHT22;55412;51.350;17.056;2022-12-19T16:40:43;0.40;70.20
68433;DHT22;55412;51.350;17.056;2022-12-19T16:43:29;0.40;70.20
68433;DHT22;55412;51.350;17.056;2022-12-19T16:45:57;0.40;70.50
68433;DHT22;55412;51.350;17.056;2022-12-19T16:48:26;0.40;70.20
68433;DHT22;55412;51.350;17.056;2022-12-19T16:50:56;0.40;70.50
68433;DHT22;55412;51.350;17.056;2022-12-19T16:53:23;0.40;70.90
68433;DHT22;55412;51.350;17.056;2022-12-19T16:55:49;0.40;71.00
68433;DHT22;55412;51.350;17.056;2022-12-19T16:58:19;0.40;71.20
68433;DHT22;55412;51.350;17.056;2022-12-19T17:00:46;0.30;71.70
68433;DHT22;55412;51.350;17.056;2022-12-19T17:03:35;0.30;71.90
68433;DHT22;55412;51.350;17.056;2022-12-19T17:06:05;0.30;72.10
68433;DHT22;55412;51.350;17.056;2022-12-19T17:08:42;0.30;71.90
68433;DHT22;55412;51.350;17.056;2022-12-19T17:11:17;0.30;72.10
68433;DHT22;55412;51.350;17.056;2022-12-19T17:14:09;0.30;72.10
68433;DHT22;55412;51.350;17.056;2022-12-19T17:16:35;0.20;72.50
68433;DHT22;55412;51.350;17.056;2022-12-19T17:19:01;0.20;72.50
68433;DHT22;55412;51.350;17.056;2022-12-19T17:21:28;0.20;72.40
68433;DHT22;55412;51.350;17.056;2022-12-19T17:23:54;0.20;72.80
68433;DHT22;55412;51.350;17.056;2022-12-19T17:26:20;0.20;72.40
68433;DHT22;55412;51.350;17.056;2022-12-19T17:28:46;0.20;72.40
68433;DHT22;55412;51.350;17.056;2022-12-19T17:31:23;0.20;72.50
68433;DHT22;55412;51.350;17.056;2022-12-19T17:33:51;0.20;73.00
68433;DHT22;55412;51.350;17.056;2022-12-19T17:36:20;0.20;72.80
68433;DHT22;55412;51.350;17.056;2022-12-19T17:38:47;0.20;73.00
68433;DHT22;55412;51.350;17.056;2022-12-19T17:41:15;0.20;72.80
68433;DHT22;55412;51.350;17.056;2022-12-19T17:43:42;0.20;73.00
68433;DHT22;55412;51.350;17.056;2022-12-19T17:46:17;0.20;72.80
68433;DHT22;55412;51.350;17.056;2022-12-19T17:48:45;0.20;72.80
68433;DHT22;55412;51.350;17.056;2022-12-19T17:51:16;0.30;73.20
68433;DHT22;55412;51.350;17.056;2022-12-19T17:53:44;0.30;73.30
68433;DHT22;55412;51.350;17.056;2022-12-19T17:56:15;0.30;73.20
68433;DHT22;55412;51.350;17.056;2022-12-19T17:58:42;0.30;73.00
68433;DHT22;55412;51.350;17.056;2022-12-19T18:01:20;0.30;73.10